Terminal Aerodrome Forecast
Issued by NWS Cleveland, OH

Home | Current Version | Previous Version | Text Only | Print | Product List | Glossary Off
Versions: 1 2 3 4 5 6 7 8 9 10 11 12 13

961
FTUS41 KCLE 232341
TAFMFD
TAF
KMFD 232341Z 2400/2424 25008KT P6SM BKN018 OVC025
     FM240300 28006KT P6SM BKN025 BKN040
     FM240600 28006KT P6SM SCT040
     FM241200 27010KT P6SM SCT080
     FM241600 27012G20KT P6SM BKN045
     FM242200 27010KT P6SM BKN080=

USA.gov is the U.S. government's official web portal to all federal, state and local government web resources and services.